Time;durP1;ratioP1;P1;durP2;ratioP2;P2;SDS_P1;SDS_P2;PMS_P1;PMS_P2;Temp;Humidity;BMP_temperature;BMP_pressure;BME280_temperature;BME280_humidity;BME280_pressure;Samples;Min_cycle;Max_cycle;Signal;HPM_P1;HPM_P2
2021/03/10 00:00:36;;;;;;;37.47;18.75;;;;;;;4.52;88.40;96955.41;5043189;28;20047;-64
2021/03/10 00:03:20;;;;;;;38.63;18.23;;;;;;;4.89;89.67;97035.19;5043907;28;20135;-63
2021/03/10 00:06:05;;;;;;;41.50;19.60;;;;;;;4.84;90.30;97010.72;5042337;28;20051;-63
2021/03/10 00:08:50;;;;;;;35.95;19.58;;;;;;;4.82;89.67;96980.06;5043458;28;20191;-64
2021/03/10 00:11:34;;;;;;;51.63;21.58;;;;;;;5.31;88.69;97042.28;5042160;28;20071;-65
2021/03/10 00:14:18;;;;;;;36.65;19.35;;;;;;;5.57;87.69;97029.09;5043344;28;20120;-64
2021/03/10 00:17:02;;;;;;;47.33;20.80;;;;;;;5.69;86.44;97031.91;5041989;28;20506;-64
2021/03/10 00:19:46;;;;;;;36.40;18.38;;;;;;;5.34;85.56;96953.75;5043463;28;20092;-63
2021/03/10 00:22:31;;;;;;;34.78;18.52;;;;;;;5.83;84.33;96999.44;5041982;28;20525;-64
2021/03/10 00:25:16;;;;;;;40.67;18.90;;;;;;;5.90;84.55;96985.94;5043380;28;20135;-64
2021/03/10 00:28:00;;;;;;;46.03;22.42;;;;;;;5.69;84.16;96922.00;5042193;28;20156;-64
2021/03/10 00:30:45;;;;;;;34.67;19.35;;;;;;;6.07;84.67;97002.22;5042914;28;20132;-64
2021/03/10 00:33:28;;;;;;;39.10;19.50;;;;;;;4.58;88.71;96860.81;5043675;28;20447;-63
2021/03/10 00:36:12;;;;;;;38.55;20.85;;;;;;;5.65;88.16;97066.69;5043176;28;20071;-63
2021/03/10 00:38:56;;;;;;;38.90;19.70;;;;;;;5.63;88.04;96992.03;5043833;28;20671;-62
2021/03/10 00:41:40;;;;;;;40.75;20.48;;;;;;;5.81;87.33;96985.22;5042906;28;20082;-64
2021/03/10 00:44:24;;;;;;;46.42;23.10;;;;;;;5.25;91.51;96983.22;5042656;28;20119;-62
2021/03/10 00:47:10;;;;;;;45.10;22.00;;;;;;;4.93;93.07;96959.28;5042901;28;20051;-63
2021/03/10 00:49:54;;;;;;;44.28;22.67;;;;;;;5.06;94.84;96974.69;5041797;28;20562;-63
2021/03/10 00:52:38;;;;;;;40.35;21.23;;;;;;;5.11;93.34;96974.47;5043471;28;20495;-63
2021/03/10 00:55:23;;;;;;;48.75;21.05;;;;;;;4.50;93.61;96885.59;5042741;28;20075;-64
2021/03/10 00:58:07;;;;;;;43.20;22.90;;;;;;;4.74;94.74;96906.84;5043117;28;20483;-63
2021/03/10 01:00:51;;;;;;;46.33;23.40;;;;;;;5.30;94.32;96964.59;5041114;28;20617;-64
2021/03/10 01:03:35;;;;;;;41.50;21.55;;;;;;;5.44;94.34;96958.78;5043310;28;20087;-64
2021/03/10 01:06:23;;;;;;;38.35;20.77;;;;;;;4.83;93.51;96866.41;5042636;28;20059;-64
2021/03/10 01:09:09;;;;;;;36.85;21.40;;;;;;;5.24;93.10;96902.78;5041864;28;20056;-64
2021/03/10 01:11:53;;;;;;;36.78;20.85;;;;;;;5.70;92.06;96951.06;5041518;28;20133;-64
2021/03/10 01:14:37;;;;;;;44.65;21.42;;;;;;;5.65;91.75;96940.28;5043425;28;20418;-64
2021/03/10 01:17:21;;;;;;;37.53;20.75;;;;;;;5.89;91.23;96954.91;5042134;28;20043;-63
2021/03/10 01:20:11;;;;;;;39.03;21.48;;;;;;;5.89;89.99;96935.69;5043103;28;20091;-64
2021/03/10 01:22:55;;;;;;;42.95;21.70;;;;;;;5.90;90.31;96948.25;5042754;28;20060;-64
2021/03/10 01:25:39;;;;;;;43.28;21.90;;;;;;;5.79;92.15;96944.31;5042613;28;20481;-65
2021/03/10 01:28:23;;;;;;;40.45;21.80;;;;;;;5.73;93.25;96933.91;5042419;28;20106;-65
2021/03/10 01:31:07;;;;;;;43.42;23.30;;;;;;;5.87;92.16;96929.72;5041439;28;20040;-64
2021/03/10 01:33:51;;;;;;;46.63;23.40;;;;;;;5.18;92.79;96834.72;5041150;28;20071;-65
2021/03/10 01:36:35;;;;;;;47.85;25.42;;;;;;;5.23;95.25;96870.97;5042256;28;20122;-66
2021/03/10 01:39:19;;;;;;;55.28;25.45;;;;;;;5.20;97.02;96899.09;5041397;28;20537;-65
2021/03/10 01:42:04;;;;;;;49.65;25.50;;;;;;;4.69;98.52;96845.53;5041104;28;20093;-65
2021/03/10 01:44:48;;;;;;;50.85;23.90;;;;;;;5.46;97.39;96918.06;5042492;28;20037;-63
2021/03/10 01:47:33;;;;;;;52.92;26.10;;;;;;;5.40;97.61;96916.66;5042448;28;20063;-65
2021/03/10 01:50:18;;;;;;;51.97;25.75;;;;;;;5.55;97.47;96916.00;5041299;28;20401;-65
2021/03/10 01:53:04;;;;;;;53.05;25.63;;;;;;;5.43;98.74;96907.75;5042454;28;20048;-65
2021/03/10 01:55:48;;;;;;;46.90;24.90;;;;;;;5.31;100.00;96921.47;5044123;28;20153;-64
2021/03/10 01:58:34;;;;;;;53.47;28.30;;;;;;;5.35;99.68;96905.91;5046047;28;20423;-65
2021/03/10 02:01:19;;;;;;;53.17;26.25;;;;;;;5.41;99.56;96893.53;5045605;28;20384;-64
2021/03/10 02:04:08;;;;;;;49.92;25.95;;;;;;;5.31;100.00;96888.50;5045561;28;20052;-64
2021/03/10 02:07:11;;;;;;;55.90;26.83;;;;;;;5.28;100.00;96884.47;5046083;28;20063;-64
2021/03/10 02:10:04;;;;;;;61.45;29.48;;;;;;;5.52;100.00;96890.03;5044873;28;20094;-64
2021/03/10 02:13:13;;;;;;;54.38;26.75;;;;;;;5.35;99.82;96861.97;5046443;28;20146;-64
2021/03/10 02:16:26;;;;;;;53.75;28.10;;;;;;;5.67;99.59;96896.81;5045298;28;20106;-64
2021/03/10 02:19:41;;;;;;;56.88;27.00;;;;;;;5.71;98.75;96903.19;5045725;28;20075;-64
2021/03/10 02:22:43;;;;;;;51.35;25.60;;;;;;;5.71;99.16;96900.47;5044165;28;20036;-64
2021/03/10 02:25:41;;;;;;;58.30;29.63;;;;;;;5.18;99.52;96818.25;5045136;28;20110;-64
2021/03/10 02:28:27;;;;;;;51.95;28.35;;;;;;;5.73;99.57;96892.69;5046087;28;20040;-64
2021/03/10 02:31:12;;;;;;;48.72;27.13;;;;;;;5.63;99.94;96893.13;5045254;28;20095;-64
2021/03/10 02:33:59;;;;;;;57.15;28.63;;;;;;;5.31;100.00;96877.53;5046009;28;20045;-63
2021/03/10 02:36:47;;;;;;;59.60;30.25;;;;;;;5.58;100.00;96872.16;5043839;28;20419;-64
2021/03/10 02:39:32;;;;;;;61.00;30.55;;;;;;;5.56;100.00;96879.16;5045440;28;20491;-63
2021/03/10 02:42:17;;;;;;;56.20;27.80;;;;;;;5.44;100.00;96859.91;5045367;28;20371;-63
2021/03/10 02:45:02;;;;;;;62.38;29.23;;;;;;;5.24;100.00;96856.13;5044075;28;20496;-64
2021/03/10 02:47:47;;;;;;;63.17;32.00;;;;;;;4.97;100.00;96806.53;5045049;28;20067;-63
2021/03/10 02:50:32;;;;;;;59.38;28.58;;;;;;;4.96;100.00;96837.88;5043576;28;20151;-64
2021/03/10 02:53:17;;;;;;;57.28;30.05;;;;;;;4.95;100.00;96831.56;5044990;28;20114;-64
2021/03/10 02:56:01;;;;;;;55.78;27.75;;;;;;;4.98;100.00;96846.56;5044410;28;20044;-63
2021/03/10 02:58:46;;;;;;;65.40;31.05;;;;;;;5.01;100.00;96862.34;5044870;28;20143;-65
2021/03/10 03:01:30;;;;;;;70.10;31.85;;;;;;;4.70;100.00;96783.25;5043129;28;20056;-65
2021/03/10 03:04:14;;;;;;;53.17;28.10;;;;;;;5.05;100.00;96874.25;5044958;28;20116;-64
2021/03/10 03:06:58;;;;;;;145.07;53.25;;;;;;;4.85;100.00;96809.25;5044277;28;20130;-64
2021/03/10 03:09:42;;;;;;;75.97;34.38;;;;;;;5.03;100.00;96849.06;5045370;28;20055;-65
2021/03/10 03:12:27;;;;;;;66.82;31.92;;;;;;;4.84;100.00;96857.06;5044369;28;20451;-64
2021/03/10 03:15:16;;;;;;;67.22;31.58;;;;;;;5.14;100.00;96859.28;5043630;28;20085;-64
2021/03/10 03:18:01;;;;;;;53.85;27.45;;;;;;;4.82;100.00;96853.84;5044708;28;20256;-64
2021/03/10 03:20:46;;;;;;;63.40;30.23;;;;;;;4.94;100.00;96867.59;5043013;28;20043;-64
2021/03/10 03:23:30;;;;;;;60.38;29.70;;;;;;;4.48;100.00;96800.91;5043944;28;20108;-64
2021/03/10 03:26:19;;;;;;;67.47;31.25;;;;;;;4.19;100.00;96710.53;5043183;28;20423;-65
2021/03/10 03:29:06;;;;;;;70.22;32.40;;;;;;;4.68;100.00;96804.72;5044386;28;20048;-64
2021/03/10 03:31:50;;;;;;;65.22;30.63;;;;;;;4.96;100.00;96848.84;5043418;28;20051;-64
2021/03/10 03:34:35;;;;;;;71.50;31.65;;;;;;;5.02;100.00;96842.00;5042993;28;20052;-63
2021/03/10 03:37:19;;;;;;;69.35;30.70;;;;;;;5.13;100.00;96840.41;5043971;28;20059;-64
2021/03/10 03:40:07;;;;;;;65.75;30.45;;;;;;;5.11;100.00;96859.16;5043848;28;20059;-63
2021/03/10 03:42:51;;;;;;;74.57;31.95;;;;;;;5.07;100.00;96844.53;5044466;28;20044;-63
2021/03/10 03:45:37;;;;;;;72.00;32.17;;;;;;;2.73;100.00;96471.31;5042183;28;20555;-64
2021/03/10 03:48:21;;;;;;;77.90;30.20;;;;;;;3.64;100.00;96649.81;5042664;28;20125;-64
2021/03/10 03:51:22;;;;;;;73.20;31.85;;;;;;;4.49;100.00;96755.88;5043740;28;20082;-64
2021/03/10 03:54:06;;;;;;;68.57;31.85;;;;;;;5.13;100.00;96843.16;5044121;28;20136;-64
2021/03/10 03:56:50;;;;;;;57.83;28.52;;;;;;;4.71;100.00;96784.06;5041942;28;20114;-64
2021/03/10 03:59:35;;;;;;;70.90;32.58;;;;;;;4.60;100.00;96765.28;5043948;28;20079;-64
2021/03/10 04:02:19;;;;;;;82.20;35.03;;;;;;;1.91;100.00;96329.22;5043009;28;20047;-63
2021/03/10 04:05:04;;;;;;;66.90;31.83;;;;;;;5.08;100.00;96835.13;5043575;28;20139;-64
2021/03/10 04:07:50;;;;;;;63.35;30.15;;;;;;;5.02;100.00;96836.50;5043283;28;20044;-63
2021/03/10 04:10:36;;;;;;;54.38;27.58;;;;;;;4.80;100.00;96814.94;5042343;28;20039;-63
2021/03/10 04:13:20;;;;;;;56.08;27.52;;;;;;;4.90;100.00;96839.22;5043416;28;20098;-63
2021/03/10 04:16:05;;;;;;;77.63;31.13;;;;;;;4.65;100.00;96811.72;5043083;28;20040;-63
2021/03/10 04:18:49;;;;;;;82.70;33.08;;;;;;;4.81;100.00;96835.75;5041997;28;20047;-63
2021/03/10 04:21:33;;;;;;;75.00;34.60;;;;;;;5.05;100.00;96824.84;5042868;28;20072;-63
2021/03/10 04:24:17;;;;;;;72.63;29.27;;;;;;;4.93;100.00;96822.09;5043578;28;20052;-64
2021/03/10 04:27:01;;;;;;;75.55;33.40;;;;;;;5.07;100.00;96839.84;5041725;28;20108;-62
2021/03/10 04:29:45;;;;;;;80.38;34.40;;;;;;;4.71;100.00;96770.34;5043687;28;20162;-63
2021/03/10 04:32:29;;;;;;;89.28;34.33;;;;;;;5.12;100.00;96823.13;5042881;28;20040;-63
2021/03/10 04:35:13;;;;;;;72.18;31.73;;;;;;;5.26;100.00;96817.34;5042943;28;20067;-63
2021/03/10 04:37:58;;;;;;;55.38;26.80;;;;;;;3.61;100.00;96620.38;5042944;28;20040;-63
2021/03/10 04:40:41;;;;;;;73.28;30.08;;;;;;;5.20;100.00;96826.94;5042836;28;20048;-63
2021/03/10 04:43:26;;;;;;;67.57;30.42;;;;;;;5.16;100.00;96809.53;5043169;28;20047;-62
2021/03/10 04:46:10;;;;;;;61.58;29.23;;;;;;;4.78;100.00;96770.59;5043418;28;20102;-63
2021/03/10 04:48:53;;;;;;;94.85;31.27;;;;;;;4.44;100.00;96725.94;5041868;28;20641;-62
2021/03/10 04:51:38;;;;;;;78.85;30.88;;;;;;;4.45;100.00;96724.81;5042829;28;20056;-63
2021/03/10 04:54:22;;;;;;;68.90;28.50;;;;;;;4.45;100.00;96734.97;5042605;28;20045;-63
2021/03/10 04:57:06;;;;;;;65.30;30.38;;;;;;;5.03;100.00;96827.13;5042930;28;20044;-63
2021/03/10 04:59:50;;;;;;;63.58;28.13;;;;;;;4.09;100.00;96675.38;5042875;28;20052;-62
2021/03/10 05:02:36;;;;;;;78.00;32.30;;;;;;;5.20;100.00;96810.47;5042867;28;20133;-62
2021/03/10 05:05:20;;;;;;;61.20;29.88;;;;;;;5.30;100.00;96820.97;5042218;28;20117;-62
2021/03/10 05:08:04;;;;;;;80.65;31.38;;;;;;;5.29;100.00;96814.72;5043293;28;20048;-63
2021/03/10 05:10:48;;;;;;;88.90;32.83;;;;;;;5.40;100.00;96809.56;5042876;28;20834;-62
2021/03/10 05:13:32;;;;;;;79.38;34.70;;;;;;;5.31;100.00;96817.91;5041974;28;20164;-62
2021/03/10 05:16:16;;;;;;;55.50;30.90;;;;;;;5.32;100.00;96813.22;5041206;28;20052;-62
2021/03/10 05:19:00;;;;;;;74.38;41.08;;;;;;;5.48;100.00;96805.91;5042877;28;20532;-62
2021/03/10 05:21:44;;;;;;;75.47;42.03;;;;;;;5.50;100.00;96807.16;5042378;28;20422;-62
2021/03/10 05:24:28;;;;;;;51.25;30.77;;;;;;;4.83;100.00;96685.31;5043084;28;20120;-62
2021/03/10 05:27:13;;;;;;;58.35;31.77;;;;;;;5.43;100.00;96786.91;5042358;28;20102;-62
2021/03/10 05:30:01;;;;;;;59.30;30.67;;;;;;;5.60;100.00;96806.69;5043999;28;20239;-62
2021/03/10 05:32:46;;;;;;;62.17;31.10;;;;;;;5.53;100.00;96808.44;5046917;28;20055;-62
2021/03/10 05:35:30;;;;;;;60.95;31.38;;;;;;;5.43;100.00;96797.88;5044888;28;20052;-62
2021/03/10 05:38:14;;;;;;;43.03;19.75;;;;;;;4.35;100.00;96703.28;5045765;28;20125;-62
2021/03/10 05:40:59;;;;;;;50.67;28.70;;;;;;;5.09;100.00;96815.59;5045994;28;20102;-63
2021/03/10 05:43:44;;;;;;;61.42;31.75;;;;;;;4.65;100.00;96756.84;5047023;28;20051;-62
2021/03/10 05:46:30;;;;;;;58.15;29.13;;;;;;;2.40;100.00;96547.72;5046030;28;20522;-63
2021/03/10 05:49:14;;;;;;;66.35;34.22;;;;;;;5.08;100.00;96819.47;5046116;28;20569;-62
2021/03/10 05:52:03;;;;;;;55.70;31.58;;;;;;;4.60;100.00;96732.38;5044864;28;20051;-62
2021/03/10 05:54:50;;;;;;;52.00;28.38;;;;;;;5.03;100.00;96808.72;5046443;28;20481;-61
2021/03/10 05:57:34;;;;;;;63.38;30.55;;;;;;;5.02;100.00;96787.09;5044924;28;20040;-63
2021/03/10 06:00:19;;;;;;;55.20;30.60;;;;;;;5.12;100.00;96803.13;5044785;28;20047;-64
2021/03/10 06:03:04;;;;;;;58.75;30.10;;;;;;;5.04;100.00;96780.16;5030893;28;20060;-62
2021/03/10 06:05:58;;;;;;;58.40;32.25;;;;;;;5.27;100.00;96824.41;5044994;28;20052;-63
2021/03/10 06:08:43;;;;;;;53.88;26.60;;;;;;;5.19;100.00;96830.81;5044474;28;20052;-63
2021/03/10 06:11:27;;;;;;;62.08;29.83;;;;;;;4.96;100.00;96810.41;5045630;28;20530;-63
2021/03/10 06:14:15;;;;;;;50.45;25.08;;;;;;;4.53;100.00;96800.72;5045781;28;20051;-64
2021/03/10 06:17:10;;;;;;;55.00;27.40;;;;;;;4.20;100.00;96799.88;5045855;28;20040;-63
2021/03/10 06:19:54;;;;;;;53.13;25.08;;;;;;;4.46;100.00;96819.63;5045461;28;20080;-63
2021/03/10 06:22:38;;;;;;;51.03;26.25;;;;;;;4.31;100.00;96795.59;5045949;28;20583;-62
2021/03/10 06:25:23;;;;;;;44.05;23.85;;;;;;;4.60;100.00;96814.66;5044143;28;20526;-62
2021/03/10 06:28:07;;;;;;;58.30;28.00;;;;;;;4.16;100.00;96722.19;5045850;28;20141;-63
2021/03/10 06:30:51;;;;;;;51.88;26.70;;;;;;;4.23;100.00;96766.31;5043715;28;20095;-64
2021/03/10 06:33:35;;;;;;;45.15;22.48;;;;;;;4.37;100.00;96798.91;5045636;28;20071;-63
2021/03/10 06:36:24;;;;;;;52.15;25.95;;;;;;;4.75;100.00;96815.97;5044750;28;20036;-64
2021/03/10 06:39:11;;;;;;;51.45;24.65;;;;;;;4.50;100.00;96880.88;5045427;28;20074;-64
2021/03/10 06:41:56;;;;;;;44.35;24.52;;;;;;;4.78;100.00;96803.50;5043216;28;20052;-65
2021/03/10 06:44:51;;;;;;;49.63;24.73;;;;;;;4.76;100.00;96800.31;5045561;28;20052;-64
2021/03/10 06:47:40;;;;;;;45.03;22.30;;;;;;;3.99;100.00;96700.44;5043890;28;20199;-65
2021/03/10 06:50:37;;;;;;;50.38;24.48;;;;;;;4.86;100.00;96824.56;5044745;28;20490;-64
2021/03/10 06:53:30;;;;;;;42.85;23.13;;;;;;;3.53;100.00;96620.44;5044655;28;20055;-64
2021/03/10 06:56:25;;;;;;;36.70;18.03;;;;;;;4.54;100.00;96826.16;5043751;28;20119;-63
2021/03/10 06:59:10;;;;;;;41.85;21.25;;;;;;;4.46;100.00;96819.63;5045050;28;20106;-65
2021/03/10 07:01:56;;;;;;;39.58;21.08;;;;;;;4.51;100.00;96890.72;5044076;28;20156;-63
2021/03/10 07:04:42;;;;;;;44.38;21.30;;;;;;;4.25;100.00;96780.47;5044999;28;20098;-63
2021/03/10 07:07:30;;;;;;;50.17;22.45;;;;;;;4.75;100.00;96831.63;5044496;28;20048;-63
2021/03/10 07:10:15;;;;;;;37.53;19.42;;;;;;;4.14;100.00;96798.47;5044150;28;20075;-65
2021/03/10 07:12:59;;;;;;;46.58;22.58;;;;;;;4.52;100.00;96831.22;5045011;28;20103;-63
2021/03/10 07:15:44;;;;;;;55.03;25.73;;;;;;;4.55;100.00;96827.78;5044351;28;20514;-65
2021/03/10 07:18:29;;;;;;;51.33;24.20;;;;;;;3.78;100.00;96727.03;5043841;28;20048;-65
2021/03/10 07:21:26;;;;;;;47.83;24.33;;;;;;;4.65;100.00;96825.44;5044395;28;20778;-65
2021/03/10 07:24:17;;;;;;;57.40;28.00;;;;;;;4.68;100.00;96826.69;5043224;28;20109;-64
2021/03/10 07:27:02;;;;;;;45.35;21.63;;;;;;;4.54;100.00;96826.97;5042599;28;20044;-64
2021/03/10 07:29:47;;;;;;;45.15;23.10;;;;;;;4.32;100.00;96813.63;5033942;28;20044;-64
2021/03/10 07:32:32;;;;;;;45.95;24.67;;;;;;;4.46;100.00;96803.19;5039776;28;20132;-66
2021/03/10 07:35:16;;;;;;;52.70;27.08;;;;;;;3.78;100.00;96664.03;5043439;28;20039;-64
2021/03/10 07:38:00;;;;;;;46.72;25.08;;;;;;;3.77;100.00;96697.25;5043580;28;20098;-63
2021/03/10 07:41:11;;;;;;;51.13;25.13;;;;;;;4.61;100.00;96819.03;5043328;28;20040;-66
2021/03/10 07:43:58;;;;;;;46.60;23.98;;;;;;;4.58;100.00;96816.94;5024531;28;20071;-63
2021/03/10 07:46:43;;;;;;;50.55;24.20;;;;;;;4.47;100.00;96809.47;5022926;28;20040;-63
2021/03/10 07:49:27;;;;;;;53.90;26.58;;;;;;;4.53;100.00;96814.41;5043360;28;20064;-64
2021/03/10 07:52:14;;;;;;;41.47;23.33;;;;;;;4.67;100.00;96814.13;5002391;28;20056;-64
2021/03/10 07:55:00;;;;;;;47.95;22.73;;;;;;;4.43;100.00;96809.34;5044281;28;20126;-63
2021/03/10 07:57:54;;;;;;;37.50;20.17;;;;;;;3.44;100.00;96656.13;5044308;28;20107;-62
2021/03/10 08:00:40;;;;;;;33.25;19.13;;;;;;;2.15;100.00;96498.72;5044062;28;20045;-62
2021/03/10 08:03:29;;;;;;;36.00;20.58;;;;;;;4.04;100.00;96752.28;5044440;28;20511;-65
2021/03/10 08:06:14;;;;;;;31.45;17.90;;;;;;;4.43;100.00;96806.59;5043400;28;20044;-62
2021/03/10 08:09:04;;;;;;;33.28;17.20;;;;;;;-2.67;100.00;95829.34;5043061;28;20719;-63
2021/03/10 08:12:01;;;;;;;29.27;16.63;;;;;;;3.57;100.00;96644.09;5043718;28;20044;-63
2021/03/10 08:14:47;;;;;;;30.48;17.30;;;;;;;4.50;100.00;96776.66;5042388;28;20051;-64
2021/03/10 08:17:31;;;;;;;30.83;17.85;;;;;;;4.55;100.00;96768.25;5043274;28;20599;-65
2021/03/10 08:20:16;;;;;;;26.83;15.75;;;;;;;4.58;100.00;96773.03;5042804;28;20575;-64
2021/03/10 08:23:00;;;;;;;29.95;16.70;;;;;;;4.26;100.00;96710.00;5043626;28;20143;-68
2021/03/10 08:25:50;;;;;;;30.98;17.02;;;;;;;4.69;100.00;96763.25;5037398;28;20083;-69
2021/03/10 08:28:37;;;;;;;32.13;17.27;;;;;;;4.18;100.00;96680.75;5042412;28;20043;-66
2021/03/10 08:31:21;;;;;;;36.45;20.35;;;;;;;4.87;100.00;96760.34;5042148;28;20534;-66
2021/03/10 08:34:05;;;;;;;35.53;19.92;;;;;;;5.00;100.00;96757.25;5038468;28;20071;-63
2021/03/10 08:36:49;;;;;;;54.97;31.63;;;;;;;5.18;100.00;96757.84;5042288;28;20151;-66
2021/03/10 08:39:41;;;;;;;33.42;20.35;;;;;;;4.91;100.00;96714.59;5045175;28;20067;-65
2021/03/10 08:42:25;;;;;;;35.55;20.77;;;;;;;5.33;98.77;96748.91;5041673;28;20419;-65
2021/03/10 08:45:18;;;;;;;32.03;17.00;;;;;;;4.31;98.21;96631.09;5042482;28;20031;-63
2021/03/10 08:48:05;;;;;;;28.85;17.85;;;;;;;5.10;97.18;96695.63;5048529;28;20542;-64
2021/03/10 08:50:49;;;;;;;26.30;15.77;;;;;;;5.48;96.26;96740.00;5042282;28;20419;-67
2021/03/10 08:53:33;;;;;;;31.70;17.48;;;;;;;4.55;95.54;96642.09;5041370;28;20047;-63
2021/03/10 08:56:17;;;;;;;31.88;17.50;;;;;;;5.51;96.38;96734.59;5023486;28;20099;-65
2021/03/10 08:59:01;;;;;;;29.33;17.23;;;;;;;5.59;95.46;96735.63;5042491;28;20039;-64
2021/03/10 09:01:50;;;;;;;28.23;17.23;;;;;;;5.54;95.07;96733.09;5042309;28;20166;-65
2021/03/10 09:04:35;;;;;;;26.83;16.75;;;;;;;5.66;96.14;96724.84;5042264;28;20114;-67
2021/03/10 09:07:20;;;;;;;52.20;26.35;;;;;;;5.32;96.46;96684.16;5040812;28;20140;-65
2021/03/10 09:10:18;;;;;;;100.97;39.22;;;;;;;5.51;95.19;96673.38;5042998;28;20593;-67
2021/03/10 09:13:03;;;;;;;40.92;22.25;;;;;;;4.84;94.85;96604.63;5035300;28;20671;-64
2021/03/10 09:15:48;;;;;;;32.05;19.60;;;;;;;5.60;96.34;96715.22;5046644;28;20522;-67
2021/03/10 09:18:34;;;;;;;38.90;21.38;;;;;;;4.87;99.29;96697.22;5045349;28;20136;-64
2021/03/10 09:21:18;;;;;;;38.08;21.23;;;;;;;5.07;100.00;96688.88;5045358;28;20044;-65
2021/03/10 09:24:02;;;;;;;41.97;22.50;;;;;;;5.04;100.00;96642.09;5044780;28;20044;-66
2021/03/10 09:26:47;;;;;;;42.05;24.02;;;;;;;5.65;98.78;96702.06;5040550;28;20171;-68
2021/03/10 09:29:41;;;;;;;40.80;24.45;;;;;;;3.02;97.93;96296.13;5043799;28;20055;-67
2021/03/10 09:32:38;;;;;;;44.88;23.77;;;;;;;5.84;98.43;96704.22;5038870;28;20202;-66
2021/03/10 09:35:37;;;;;;;55.03;29.48;;;;;;;3.41;97.50;96333.81;5026251;28;20592;-70
2021/03/10 09:38:22;;;;;;;45.78;25.67;;;;;;;5.50;97.84;96634.09;5026659;28;20079;-68
2021/03/10 09:41:07;;;;;;;41.72;22.35;;;;;;;5.94;95.16;96693.53;5044627;28;20132;-63
2021/03/10 09:44:08;;;;;;;39.65;22.83;;;;;;;6.08;94.65;96665.66;5036628;28;20036;-67
2021/03/10 09:46:52;;;;;;;40.28;23.38;;;;;;;5.10;93.71;96514.47;5054778;28;20054;-70
2021/03/10 09:49:47;;;;;;;43.60;23.50;;;;;;;6.03;95.84;96687.91;5044320;28;20079;-68
2021/03/10 09:52:39;;;;;;;41.40;24.00;;;;;;;5.01;95.54;96528.31;5042242;28;20131;-73
2021/03/10 09:55:26;;;;;;;69.13;31.35;;;;;;;5.93;96.31;96663.66;5043921;28;20051;-72
2021/03/10 09:58:12;;;;;;;59.03;29.42;;;;;;;5.63;97.42;96588.97;5043060;28;20114;-69
2021/03/10 10:01:00;;;;;;;46.63;26.38;;;;;;;5.78;94.39;96590.19;5043124;28;20044;-64
2021/03/10 10:03:44;;;;;;;51.97;26.80;;;;;;;6.23;93.27;96644.84;5045341;28;20060;-67
2021/03/10 10:06:28;;;;;;;56.47;31.20;;;;;;;6.36;94.21;96654.63;5043868;28;20082;-67
2021/03/10 10:09:12;;;;;;;71.13;38.78;;;;;;;4.98;94.49;96456.88;5045693;28;20051;-67
2021/03/10 10:12:00;;;;;;;69.05;38.25;;;;;;;6.63;93.93;96662.81;5045723;28;20399;-64
2021/03/10 10:14:45;;;;;;;56.38;33.60;;;;;;;6.69;94.48;96663.34;5039642;28;20511;-64
2021/03/10 10:17:29;;;;;;;62.28;36.72;;;;;;;6.66;95.39;96670.38;5044968;28;20048;-64
2021/03/10 10:20:15;;;;;;;69.55;39.58;;;;;;;6.69;95.92;96666.91;5044992;28;20507;-67
2021/03/10 10:22:59;;;;;;;78.90;41.25;;;;;;;6.73;95.02;96658.75;5046465;28;20047;-68
2021/03/10 10:25:43;;;;;;;57.35;31.67;;;;;;;6.45;93.11;96609.28;5043466;28;20084;-63
2021/03/10 10:28:27;;;;;;;60.78;32.60;;;;;;;6.82;92.01;96646.41;5053034;28;20435;-65
2021/03/10 10:31:11;;;;;;;58.83;34.10;;;;;;;5.96;92.64;96528.25;5046453;28;20486;-64
2021/03/10 10:33:55;;;;;;;62.28;34.47;;;;;;;6.61;93.27;96634.09;5044774;28;20496;-66
2021/03/10 10:36:39;;;;;;;71.25;38.58;;;;;;;6.75;93.68;96629.69;5044081;28;20159;-68
2021/03/10 10:39:23;;;;;;;79.53;44.97;;;;;;;6.84;94.78;96638.59;5045427;28;20047;-68
2021/03/10 10:42:08;;;;;;;69.90;42.55;;;;;;;6.89;94.74;96635.56;5044639;28;20419;-65
2021/03/10 10:44:53;;;;;;;88.03;49.63;;;;;;;6.10;94.90;96523.16;5044301;28;20106;-69
2021/03/10 10:47:37;;;;;;;108.60;58.25;;;;;;;6.41;95.32;96558.91;5043888;28;20474;-65
2021/03/10 10:50:21;;;;;;;97.00;53.67;;;;;;;7.08;95.48;96671.41;5044670;28;20040;-65
2021/03/10 10:53:06;;;;;;;88.32;50.28;;;;;;;6.68;94.72;96543.44;5044654;28;20063;-67
2021/03/10 10:55:50;;;;;;;64.10;37.63;;;;;;;6.97;95.10;96626.31;5043912;28;20044;-66
2021/03/10 10:58:33;;;;;;;66.72;38.08;;;;;;;6.97;92.97;96617.28;5045757;28;20056;-67
2021/03/10 11:01:17;;;;;;;84.65;47.35;;;;;;;7.02;93.21;96620.53;5044835;28;20134;-66
2021/03/10 11:04:01;;;;;;;90.78;51.55;;;;;;;7.03;93.54;96607.56;5044834;28;20507;-65
2021/03/10 11:06:45;;;;;;;84.20;48.80;;;;;;;6.79;94.51;96541.72;5044313;28;20095;-66
2021/03/10 11:09:29;;;;;;;81.82;48.38;;;;;;;7.16;91.38;96565.78;5043173;28;20525;-68
2021/03/10 11:12:13;;;;;;;79.30;45.08;;;;;;;6.82;92.65;96511.53;5043474;28;20191;-67
2021/03/10 11:14:57;;;;;;;62.53;35.45;;;;;;;7.37;91.85;96585.53;5045160;28;20091;-66
2021/03/10 11:17:41;;;;;;;70.10;39.55;;;;;;;6.40;92.34;96513.31;5045401;28;20137;-66
2021/03/10 11:20:25;;;;;;;75.22;42.78;;;;;;;6.59;94.32;96482.28;5044743;28;20106;-68
2021/03/10 11:23:09;;;;;;;78.45;43.67;;;;;;;7.21;94.12;96572.97;5045135;28;20047;-66
2021/03/10 11:25:53;;;;;;;79.30;45.90;;;;;;;6.50;94.63;96452.22;5024264;28;20566;-65
2021/03/10 11:28:37;;;;;;;74.05;41.05;;;;;;;6.92;95.06;96512.94;5023722;28;20099;-66
2021/03/10 11:31:22;;;;;;;73.68;39.65;;;;;;;7.01;94.90;96492.31;5024260;28;20048;-66
2021/03/10 11:34:06;;;;;;;75.95;41.92;;;;;;;6.74;91.39;96468.50;5023222;28;20110;-65
2021/03/10 11:36:50;;;;;;;72.90;44.35;;;;;;;7.14;91.24;96504.78;5024255;28;20048;-65
2021/03/10 11:39:35;;;;;;;89.35;49.75;;;;;;;7.36;94.00;96539.06;5039844;28;20075;-65
2021/03/10 11:42:19;;;;;;;56.05;32.45;;;;;;;7.13;91.70;96525.19;5042246;28;20052;-66
2021/03/10 11:45:09;;;;;;;51.10;32.13;;;;;;;7.23;93.36;96535.66;4523850;28;20005140;-64
2021/03/10 11:47:54;;;;;;;76.25;42.65;;;;;;;7.24;93.33;96531.72;5044173;28;20236;-64
2021/03/10 11:50:39;;;;;;;68.97;39.53;;;;;;;7.24;92.07;96520.72;5043464;28;20083;-65
2021/03/10 11:53:23;;;;;;;67.82;40.00;;;;;;;7.03;92.84;96498.25;5042718;28;20098;-66
2021/03/10 11:56:07;;;;;;;69.53;39.53;;;;;;;4.86;92.99;96146.88;5041453;28;20044;-64
2021/03/10 11:58:51;;;;;;;78.32;41.38;;;;;;;6.80;94.46;96472.56;5044179;28;20040;-64
2021/03/10 12:01:36;;;;;;;76.43;41.97;;;;;;;7.17;94.36;96508.75;5040182;28;20112;-63
2021/03/10 12:04:20;;;;;;;78.50;42.65;;;;;;;6.97;94.26;96449.34;5038891;28;20580;-66
2021/03/10 12:07:04;;;;;;;81.18;45.70;;;;;;;7.38;94.27;96504.47;5042743;28;20898;-65
2021/03/10 12:09:48;;;;;;;76.70;44.53;;;;;;;6.94;92.95;96412.28;5041436;28;20124;-65
2021/03/10 12:12:32;;;;;;;60.88;35.97;;;;;;;7.46;91.52;96494.41;5026727;28;20574;-66
2021/03/10 12:15:18;;;;;;;81.20;47.75;;;;;;;6.56;91.84;96405.97;5038813;28;20090;-68
2021/03/10 12:18:02;;;;;;;96.40;54.95;;;;;;;7.38;92.57;96515.50;5043007;28;20047;-65
2021/03/10 12:20:48;;;;;;;95.18;53.83;;;;;;;7.47;93.98;96501.50;5040228;28;20044;-66
2021/03/10 12:23:33;;;;;;;82.13;47.95;;;;;;;6.52;95.90;96471.91;5042001;28;20542;-70
2021/03/10 12:26:17;;;;;;;93.57;52.95;;;;;;;6.57;97.23;96460.66;5041925;28;20099;-64
2021/03/10 12:29:01;;;;;;;97.15;57.17;;;;;;;5.95;98.47;96356.25;5041259;28;20040;-66
2021/03/10 12:31:46;;;;;;;105.63;56.50;;;;;;;6.75;99.46;96453.56;5040846;28;20043;-68
2021/03/10 12:34:30;;;;;;;107.15;60.05;;;;;;;7.12;99.07;96487.81;5042125;28;20489;-69
2021/03/10 12:37:14;;;;;;;91.55;54.08;;;;;;;7.10;97.21;96481.88;5028921;28;20127;-65
2021/03/10 12:39:59;;;;;;;76.15;40.88;;;;;;;6.34;97.71;96392.91;5041918;28;20059;-67
2021/03/10 12:42:43;;;;;;;70.57;38.05;;;;;;;6.52;100.00;96488.44;5043131;28;20048;-64
2021/03/10 12:45:27;;;;;;;63.92;36.35;;;;;;;6.36;100.00;96484.91;5040653;28;21145;-63
2021/03/10 12:48:11;;;;;;;74.85;37.97;;;;;;;5.82;100.00;96445.44;5042830;28;20549;-63